Flight Track Log - Related Links

Times and Time Zones

All times are in EDT time to prevent confusion due to time zone crossing. See the QXE234 flight status page for this flight to view local times or setup timezone preferences in your user account.


Time Position Orientation Groundspeed Altitude Reporting Facility
EDT Latitude Longitude Course Direction KTS MPH feet Rate Location/Type
Thu 01:07:57 PM 47.4353 -122.3103 163° South 141 162 1,400  Level Seattle Center
Thu 01:08:40 PM 47.4000 -122.2939 163° South 175 201 2,600 1,674 Climbing Seattle Center
Thu 01:09:23 PM 47.3708 -122.2806 142° Southeast 193 222 3,800 1,846 Climbing Seattle Center
Thu 01:10:24 PM 47.3272 -122.2311 91° East 220 253 5,800 2,049 Climbing Seattle Center
Thu 01:11:26 PM 47.3267 -122.1467 68° East 219 252 8,000 2,244 Climbing Seattle Center
Thu 01:12:27 PM 47.3542 -122.0442 71° East 224 258 10,400 1,623 Climbing Seattle Center
Thu 01:13:28 PM 47.3772 -121.9422 70° East 276 318 11,300 1,122 Climbing Seattle Center
Thu 01:14:30 PM 47.4047 -121.8297 71° East 295 339 12,700 1,366 Climbing Seattle Center
Thu 01:15:31 PM 47.4314 -121.7131 92° East 302 348 14,100 1,377 Climbing Seattle Center
Thu 01:16:32 PM 47.4278 -121.5850 92° East 316 364 15,500 1,317 Climbing Seattle Center
Thu 01:17:34 PM 47.4253 -121.4592 91° East 313 360 16,800 1,366 Climbing Seattle Center
Thu 01:18:35 PM 47.4228 -121.3064 91° East 313 360 18,300 1,073 Climbing Seattle Center
Thu 01:19:37 PM 47.4211 -121.1778 91° East 315 362 19,000 341 Climbing Seattle Center
Thu 01:20:38 PM 47.4189 -121.0367 93° East 338 389 19,000  Level Seattle Center
Thu 01:21:39 PM 47.4142 -120.8903 91° East 364 419 19,000  Level Seattle Center
Thu 01:22:41 PM 47.4122 -120.7258 92° East 361 415 19,000  Level Seattle Center
Thu 01:23:42 PM 47.4094 -120.5914 92° East 339 390 19,000  Level Seattle Center
Thu 01:24:43 PM 47.4058 -120.4561 92° East 332 382 19,000  Level Seattle Center
Thu 01:25:45 PM 47.4022 -120.3250 91° East 325 374 19,000  Level Seattle Center
Thu 01:26:46 PM 47.4000 -120.1944 93° East 321 369 19,000  Level Seattle Center
Thu 01:27:47 PM 47.3956 -120.0661 92° East 318 366 19,000  Level Seattle Center
Thu 01:28:49 PM 47.3922 -119.9383 92° East 315 362 19,000  Level Seattle Center
Thu 01:29:50 PM 47.3883 -119.7853 93° East 314 361 19,000  Level Seattle Center
Thu 01:30:51 PM 47.3842 -119.6600 93° East 312 359 19,000  Level Seattle Center
Thu 01:31:53 PM 47.3797 -119.5339 92° East 310 357 19,000  Level Seattle Center
Thu 01:32:54 PM 47.3761 -119.4072 85° East 310 357 19,000  Level Seattle Center
Thu 01:33:55 PM 47.3842 -119.2811 86° East 313 360 19,000  Level Seattle Center
Thu 01:34:57 PM 47.3908 -119.1528 87° East 315 362 19,000  Level Seattle Center
Thu 01:35:58 PM 47.3958 -119.0194 87° East 321 369 19,000  Level Seattle Center
Thu 01:37:00 PM 47.4014 -118.8614 86° East 323 372 19,000 -98 Level Seattle Center
Thu 01:38:01 PM 47.4081 -118.7272 87° East 326 375 18,800 -934 Descending Seattle Center
Thu 01:39:02 PM 47.4136 -118.5822 86° East 338 389 17,100 -1,610 Descending Seattle Center
Thu 01:40:04 PM 47.4197 -118.4408 77° East 339 390 15,500 -1,659 Descending Seattle Center
Thu 01:41:05 PM 47.4422 -118.2994 66° East 333 383 13,700 -1,610 Descending Seattle Center
Thu 01:42:07 PM 47.4800 -118.1764 67° East 327 376 12,200 -1,463 Descending Seattle Center
Thu 01:43:08 PM 47.5147 -118.0539 68° East 324 373 10,700 -1,328 Descending Seattle Center
Thu 01:44:09 PM 47.5508 -117.9236 68° East 321 369 9,500 -1,220 Descending Seattle Center
Thu 01:45:11 PM 47.5803 -117.8156 66° East 288 331 8,200 -1,366 Descending Seattle Center
Thu 01:46:12 PM 47.6114 -117.7133 48° Northeast 276 318 6,700 -1,463 Descending Seattle Center
Thu 01:47:14 PM 47.6611 -117.6317 46° Northeast 262 302 5,200 -1,317 Descending Seattle Center
Thu 01:48:15 PM 47.7100 -117.5564 111° Southeast 252 290 4,000 -634 Descending Seattle Center
Thu 01:49:17 PM 47.6917 -117.4858 177° South 190 219 3,900 -439 Descending Seattle Center
Thu 01:50:18 PM 47.6553 -117.4831 226° Southwest 147 169 3,100 -787 Descending Seattle Center
Thu 01:51:19 PM 47.6308 -117.5200 226° Southwest 127 146 2,300 -390 Descending Seattle Center
Thu 01:52:21 PM 47.6083 -117.5547 226° Southwest 127 146 2,300  Level Seattle Center

Login

Don't have an account? Register now (free) for customized features, flight alerts, and more!